createdAt,value
2023-01-12T00:02:12.821Z,14.50
2023-01-12T00:04:39.438Z,16.85
2023-01-12T00:07:06.970Z,14.40
2023-01-12T00:09:33.363Z,13.40
2023-01-12T00:11:59.655Z,12.77
2023-01-12T00:14:26.098Z,24.58
2023-01-12T00:16:52.405Z,13.02
2023-01-12T00:19:20.060Z,16.05
2023-01-12T00:21:50.321Z,14.13
2023-01-12T00:24:21.475Z,20.70
2023-01-12T00:26:47.986Z,20.80
2023-01-12T00:29:14.722Z,17.50
2023-01-12T00:31:41.050Z,16.30
2023-01-12T00:34:07.450Z,15.98
2023-01-12T00:36:34.010Z,17.55
2023-01-12T00:39:00.303Z,14.25
2023-01-12T00:41:46.010Z,16.33
2023-01-12T00:44:31.060Z,12.20
2023-01-12T00:46:57.432Z,18.15
2023-01-12T00:49:23.772Z,17.92
2023-01-12T00:51:50.134Z,13.25
2023-01-12T00:54:16.479Z,12.75
2023-01-12T00:56:42.784Z,17.10
2023-01-12T00:59:09.100Z,18.75
2023-01-12T01:01:35.768Z,16.58
2023-01-12T01:04:02.557Z,20.70
2023-01-12T01:06:28.966Z,18.35
2023-01-12T01:08:55.278Z,13.55
2023-01-12T01:11:22.103Z,21.35
2023-01-12T01:13:49.119Z,13.68
2023-01-12T01:16:16.089Z,14.95
2023-01-12T01:18:43.011Z,16.70
2023-01-12T01:21:10.129Z,20.50
2023-01-12T01:23:37.053Z,17.23
2023-01-12T01:26:08.046Z,13.45
2023-01-12T01:28:34.838Z,14.20
2023-01-12T01:31:04.244Z,8.13
2023-01-12T01:33:31.216Z,22.13
2023-01-12T01:35:57.560Z,12.32
2023-01-12T01:38:23.966Z,19.42
2023-01-12T01:40:50.305Z,16.85
2023-01-12T01:43:17.437Z,20.17
2023-01-12T01:45:45.527Z,23.95
2023-01-12T01:48:13.447Z,18.83
2023-01-12T01:50:41.006Z,16.50
2023-01-12T01:53:10.845Z,15.65
2023-01-12T01:55:38.729Z,15.45
2023-01-12T01:58:09.068Z,16.90
2023-01-12T02:00:37.422Z,15.50
2023-01-12T02:03:04.866Z,18.05
2023-01-12T02:05:31.411Z,20.80
2023-01-12T02:08:01.854Z,18.50
2023-01-12T02:10:28.268Z,30.10
2023-01-12T02:13:13.459Z,11.68
2023-01-12T02:16:04.834Z,17.27
2023-01-12T02:18:34.111Z,14.23
2023-01-12T02:21:10.441Z,11.60
2023-01-12T02:23:55.481Z,12.65
2023-01-12T02:26:54.380Z,17.58
2023-01-12T02:29:20.645Z,15.80
2023-01-12T02:31:50.087Z,13.02
2023-01-12T02:34:24.375Z,19.92
2023-01-12T02:37:04.192Z,16.88
2023-01-12T02:39:38.261Z,10.13
2023-01-12T02:42:29.571Z,12.55
2023-01-12T02:45:00.606Z,10.23
2023-01-12T02:47:36.224Z,12.45
2023-01-12T02:50:03.795Z,14.88
2023-01-12T02:52:31.838Z,16.00
2023-01-12T02:55:00.122Z,15.98
2023-01-12T02:57:27.751Z,16.55
2023-01-12T02:59:55.384Z,14.07
2023-01-12T03:02:23.886Z,14.52
2023-01-12T03:04:50.401Z,12.82
2023-01-12T03:07:19.811Z,7.43
2023-01-12T03:09:49.033Z,10.65
2023-01-12T03:12:20.034Z,11.25
2023-01-12T03:14:48.634Z,15.98
2023-01-12T03:17:20.294Z,11.65
2023-01-12T03:19:46.985Z,13.02
2023-01-12T03:22:14.438Z,9.27
2023-01-12T03:24:43.756Z,15.70
2023-01-12T03:27:15.821Z,12.60
2023-01-12T03:29:50.177Z,13.23
2023-01-12T03:32:16.681Z,14.90
2023-01-12T03:34:43.001Z,11.85
2023-01-12T03:37:22.454Z,12.57
2023-01-12T03:40:21.243Z,8.60
2023-01-12T03:42:53.101Z,12.60
2023-01-12T03:45:30.541Z,15.30
2023-01-12T03:48:17.391Z,14.90
2023-01-12T03:50:52.996Z,14.95
2023-01-12T03:53:21.232Z,11.40
2023-01-12T03:55:48.821Z,14.77
2023-01-12T03:58:15.395Z,13.70
2023-01-12T04:00:41.969Z,14.85
2023-01-12T04:03:12.787Z,15.30
2023-01-12T04:05:39.984Z,13.55
2023-01-12T04:08:06.333Z,15.75
2023-01-12T04:10:32.759Z,8.15
2023-01-12T04:12:59.082Z,13.50
2023-01-12T04:15:25.397Z,13.60
2023-01-12T04:17:51.753Z,12.55
2023-01-12T04:20:18.249Z,15.23
2023-01-12T04:22:45.099Z,13.63
2023-01-12T04:25:15.970Z,14.02
2023-01-12T04:27:45.796Z,14.50
2023-01-12T04:30:12.285Z,9.57
2023-01-12T04:32:38.826Z,9.75
2023-01-12T04:35:05.715Z,7.25
2023-01-12T04:37:33.632Z,8.65
2023-01-12T04:40:00.387Z,9.73
2023-01-12T04:42:45.832Z,11.68
2023-01-12T04:45:12.431Z,14.43
2023-01-12T04:47:39.072Z,7.82
2023-01-12T04:50:05.743Z,11.73
2023-01-12T04:52:32.094Z,10.07
2023-01-12T04:54:58.423Z,15.60
2023-01-12T04:57:24.801Z,9.90
2023-01-12T04:59:51.161Z,14.13
2023-01-12T05:02:17.632Z,7.32
2023-01-12T05:04:46.031Z,11.27
2023-01-12T05:07:12.472Z,11.52
2023-01-12T05:09:57.550Z,12.30
2023-01-12T05:12:23.933Z,10.05
2023-01-12T05:14:50.510Z,13.73
2023-01-12T05:17:16.860Z,7.13
2023-01-12T05:19:43.194Z,7.47
2023-01-12T05:22:09.536Z,10.55
2023-01-12T05:24:35.856Z,9.43
2023-01-12T05:27:02.382Z,10.57
2023-01-12T05:29:28.765Z,9.32
2023-01-12T05:31:55.066Z,10.90
2023-01-12T05:34:21.371Z,16.35
2023-01-12T05:36:47.912Z,14.60
2023-01-12T05:39:14.195Z,11.75
2023-01-12T05:42:03.477Z,9.50
2023-01-12T05:44:29.818Z,9.07
2023-01-12T05:46:56.143Z,13.13
2023-01-12T05:49:22.482Z,10.38
2023-01-12T05:51:48.871Z,12.82
2023-01-12T05:54:15.346Z,13.40
2023-01-12T05:56:42.679Z,7.55
2023-01-12T05:59:10.401Z,8.20
2023-01-12T06:01:36.707Z,11.23
2023-01-12T06:04:03.083Z,13.18
2023-01-12T06:06:31.324Z,11.60
2023-01-12T06:08:58.642Z,11.13
2023-01-12T06:11:43.714Z,11.80
2023-01-12T06:14:10.356Z,11.70
2023-01-12T06:16:37.639Z,9.85
2023-01-12T06:19:04.287Z,11.00
2023-01-12T06:21:31.979Z,16.45
2023-01-12T06:23:58.498Z,16.95
2023-01-12T06:26:24.947Z,17.60
2023-01-12T06:28:51.326Z,12.00
2023-01-12T06:31:17.697Z,15.32
2023-01-12T06:33:44.066Z,10.38
2023-01-12T06:36:10.822Z,13.40
2023-01-12T06:38:37.615Z,12.75
2023-01-12T06:41:31.457Z,15.60
2023-01-12T06:43:57.864Z,10.07
2023-01-12T06:46:25.386Z,10.98
2023-01-12T06:48:51.758Z,12.15
2023-01-12T06:51:18.074Z,17.27
2023-01-12T06:53:44.370Z,15.55
2023-01-12T06:56:10.735Z,11.75
2023-01-12T06:58:37.101Z,12.75
2023-01-12T07:01:03.803Z,8.98
2023-01-12T07:03:30.149Z,14.82
2023-01-12T07:06:00.364Z,12.25
2023-01-12T07:08:27.199Z,16.85
2023-01-12T07:10:54.652Z,15.30
2023-01-12T07:13:21.890Z,14.82
2023-01-12T07:15:48.315Z,12.75
2023-01-12T07:18:14.630Z,17.92
2023-01-12T07:20:40.963Z,15.57
2023-01-12T07:23:07.263Z,20.88
2023-01-12T07:25:33.565Z,11.50
2023-01-12T07:28:00.276Z,14.32
2023-01-12T07:30:26.805Z,18.08
2023-01-12T07:32:53.407Z,16.13
2023-01-12T07:35:19.947Z,13.93
2023-01-12T07:37:55.734Z,14.40
2023-01-12T07:40:22.095Z,13.27
2023-01-12T07:42:48.367Z,17.42
2023-01-12T07:45:14.736Z,15.20
2023-01-12T07:47:41.064Z,11.35
2023-01-12T07:50:07.521Z,10.10
2023-01-12T07:52:33.880Z,11.23
2023-01-12T07:55:00.259Z,15.35
2023-01-12T07:57:26.672Z,12.20
2023-01-12T07:59:52.992Z,11.55
2023-01-12T08:02:20.120Z,11.10
2023-01-12T08:04:46.524Z,7.72
2023-01-12T08:07:14.912Z,11.75
2023-01-12T08:09:41.238Z,10.63
2023-01-12T08:12:07.626Z,6.03
2023-01-12T08:14:37.051Z,7.82
2023-01-12T08:17:06.324Z,11.80
2023-01-12T08:19:38.523Z,8.43
2023-01-12T08:22:07.852Z,7.82
2023-01-12T08:24:36.461Z,5.80
2023-01-12T08:27:04.779Z,10.77
2023-01-12T08:29:40.025Z,10.30
2023-01-12T08:34:38.608Z,8.32
2023-01-12T08:37:06.638Z,9.93
2023-01-12T08:39:35.160Z,8.20
2023-01-12T08:42:01.696Z,7.28
2023-01-12T08:44:33.602Z,7.60
2023-01-12T08:47:00.007Z,7.05
2023-01-12T08:49:27.958Z,5.88
2023-01-12T08:51:54.401Z,4.63
2023-01-12T08:54:21.465Z,7.53
2023-01-12T08:56:49.201Z,4.30
2023-01-12T08:59:19.241Z,4.38
2023-01-12T09:01:45.999Z,4.50
2023-01-12T09:04:12.373Z,3.10
2023-01-12T09:06:40.201Z,3.80
2023-01-12T09:09:09.710Z,7.70
2023-01-12T09:11:36.487Z,4.88
2023-01-12T09:14:02.962Z,3.20
2023-01-12T09:16:30.198Z,5.72
2023-01-12T09:18:57.606Z,3.97
2023-01-12T09:21:25.441Z,3.83
2023-01-12T09:23:55.273Z,5.30
2023-01-12T09:26:23.540Z,3.63
2023-01-12T09:28:51.362Z,3.30
2023-01-12T09:31:19.245Z,4.88
2023-01-12T09:33:45.937Z,5.47
2023-01-12T09:36:16.303Z,5.85
2023-01-12T09:38:44.100Z,5.47
2023-01-12T09:41:12.074Z,7.40
2023-01-12T09:43:57.827Z,4.03
2023-01-12T09:46:56.101Z,5.85
2023-01-12T09:49:26.502Z,4.45
2023-01-12T09:51:59.167Z,5.35
2023-01-12T09:54:25.545Z,5.72
2023-01-12T09:57:00.965Z,4.50
2023-01-12T09:59:36.079Z,4.15
2023-01-12T10:02:02.789Z,3.60
2023-01-12T10:04:29.147Z,3.20
2023-01-12T10:06:55.503Z,5.13
2023-01-12T10:09:22.564Z,3.95
2023-01-12T10:11:58.000Z,5.90
2023-01-12T10:14:40.811Z,4.88
2023-01-12T10:17:16.326Z,5.65
2023-01-12T10:19:50.691Z,4.30
2023-01-12T10:22:37.926Z,3.78
2023-01-12T10:25:11.162Z,3.80
2023-01-12T10:27:40.789Z,5.70
2023-01-12T10:30:15.434Z,3.95
2023-01-12T10:32:42.273Z,3.08
2023-01-12T10:35:19.031Z,4.40
2023-01-12T10:37:46.263Z,4.25
2023-01-12T10:40:22.139Z,6.00
2023-01-12T10:43:15.689Z,8.60
2023-01-12T10:45:55.014Z,4.88
2023-01-12T10:48:22.325Z,4.82
2023-01-12T10:50:59.067Z,3.40
2023-01-12T10:53:51.750Z,3.08
2023-01-12T10:56:24.155Z,3.65
2023-01-12T10:58:55.790Z,5.35
2023-01-12T11:01:22.299Z,6.75
2023-01-12T11:03:48.787Z,3.90
2023-01-12T11:06:27.054Z,1.88
2023-01-12T11:08:54.182Z,2.80
2023-01-12T11:11:29.283Z,5.82
2023-01-12T11:13:57.695Z,3.67
2023-01-12T11:16:31.434Z,3.40
2023-01-12T11:18:57.813Z,2.80
2023-01-12T11:21:25.882Z,4.97
2023-01-12T11:23:55.303Z,5.00
2023-01-12T11:26:30.749Z,2.90
2023-01-12T11:29:00.469Z,2.33
2023-01-12T11:31:38.353Z,2.22
2023-01-12T11:34:19.707Z,3.22
2023-01-12T11:36:54.368Z,4.05
2023-01-12T11:39:22.583Z,4.03
2023-01-12T11:42:16.029Z,2.40
2023-01-12T11:45:03.721Z,4.72
2023-01-12T11:47:36.305Z,3.55
2023-01-12T11:50:11.836Z,2.83
2023-01-12T11:52:38.406Z,2.95
2023-01-12T11:55:04.861Z,4.47
2023-01-12T11:57:41.210Z,2.67
2023-01-12T12:00:13.670Z,2.15
2023-01-12T12:02:41.573Z,9.65
2023-01-12T12:05:31.227Z,3.15
2023-01-12T12:08:03.589Z,4.13
2023-01-12T12:10:54.172Z,2.67
2023-01-12T12:13:26.642Z,3.30
2023-01-12T12:16:02.262Z,3.67
2023-01-12T12:18:31.694Z,2.65
2023-01-12T12:21:11.725Z,2.83
2023-01-12T12:23:44.090Z,1.83
2023-01-12T12:26:15.050Z,1.92
2023-01-12T12:28:56.990Z,2.65
2023-01-12T12:31:23.430Z,2.63
2023-01-12T12:33:50.340Z,5.18
2023-01-12T12:36:33.596Z,3.53
2023-01-12T12:39:05.951Z,3.13
2023-01-12T12:42:04.341Z,3.45
2023-01-12T12:44:52.600Z,4.45
2023-01-12T12:47:31.066Z,3.03
2023-01-12T12:49:58.612Z,2.53
2023-01-12T12:52:27.005Z,3.92
2023-01-12T12:54:55.342Z,3.50
2023-01-12T12:57:21.654Z,2.75
2023-01-12T12:59:55.526Z,4.10
2023-01-12T13:04:48.619Z,2.35
2023-01-12T13:07:16.847Z,1.83
2023-01-12T13:09:43.530Z,1.85
2023-01-12T13:12:19.103Z,1.20
2023-01-12T13:15:05.534Z,1.80
2023-01-12T13:17:31.948Z,1.30
2023-01-12T13:20:06.175Z,2.22
2023-01-12T13:22:40.251Z,3.30
2023-01-12T13:25:09.603Z,4.90
2023-01-12T13:27:47.557Z,3.15
2023-01-12T13:30:23.597Z,2.53
2023-01-12T13:32:52.951Z,2.53
2023-01-12T13:35:27.111Z,2.05
2023-01-12T13:37:56.469Z,1.65
2023-01-12T13:40:26.823Z,2.65
2023-01-12T13:43:13.958Z,2.53
2023-01-12T13:45:45.189Z,3.75
2023-01-12T13:48:12.298Z,2.33
2023-01-12T13:50:46.350Z,3.00
2023-01-12T13:53:23.541Z,2.75
2023-01-12T13:55:55.530Z,3.22
2023-01-12T13:58:21.944Z,2.17
2023-01-12T14:01:12.431Z,3.60
2023-01-12T14:03:49.945Z,2.95
2023-01-12T14:06:28.365Z,1.33
2023-01-12T14:09:06.161Z,1.60
2023-01-12T14:11:43.589Z,2.78
2023-01-12T14:14:46.123Z,3.70
2023-01-12T14:17:39.735Z,1.65
2023-01-12T14:20:13.259Z,1.50
2023-01-12T14:22:39.622Z,1.63
2023-01-12T14:25:22.420Z,1.02
2023-01-12T14:27:54.779Z,2.00
2023-01-12T14:30:24.113Z,1.35
2023-01-12T14:32:51.019Z,2.00
2023-01-12T14:35:19.661Z,0.80
2023-01-12T14:37:56.851Z,2.70
2023-01-12T14:40:30.528Z,1.17
2023-01-12T14:43:16.211Z,1.85
2023-01-12T14:46:14.510Z,1.13
2023-01-12T14:48:43.797Z,1.20
2023-01-12T14:51:10.102Z,1.05
2023-01-12T14:53:40.879Z,1.02
2023-01-12T14:56:18.646Z,1.35
2023-01-12T14:58:46.016Z,0.80
2023-01-12T15:01:12.958Z,1.00
2023-01-12T15:03:44.319Z,1.20
2023-01-12T15:06:14.052Z,1.70
2023-01-12T15:08:51.529Z,1.90
2023-01-12T15:11:28.161Z,2.35
2023-01-12T15:13:58.623Z,1.67
2023-01-12T15:16:43.842Z,2.95
2023-01-12T15:19:29.056Z,1.33
2023-01-12T15:22:14.655Z,1.80
2023-01-12T15:24:59.817Z,0.95
2023-01-12T15:27:27.041Z,0.98
2023-01-12T15:29:54.802Z,0.80
2023-01-12T15:32:27.623Z,0.70
2023-01-12T15:34:58.713Z,1.17
2023-01-12T15:37:25.011Z,1.00
2023-01-12T15:39:53.543Z,0.88
2023-01-12T15:42:25.899Z,1.02
2023-01-12T15:44:53.353Z,0.90
2023-01-12T15:47:20.360Z,1.15
2023-01-12T15:49:48.814Z,1.52
2023-01-12T15:52:17.134Z,0.93
2023-01-12T15:54:43.491Z,1.17
2023-01-12T15:57:13.599Z,2.35
2023-01-12T15:59:40.266Z,1.80
2023-01-12T16:02:15.905Z,1.10
2023-01-12T16:04:44.045Z,1.85
2023-01-12T16:07:17.908Z,0.77
2023-01-12T16:09:47.756Z,0.88
2023-01-12T16:12:14.854Z,1.52
2023-01-12T16:14:41.152Z,2.13
2023-01-12T16:17:08.673Z,1.27
2023-01-12T16:19:40.965Z,0.80
2023-01-12T16:22:13.533Z,1.25
2023-01-12T16:24:39.859Z,0.95
2023-01-12T16:27:06.206Z,2.40
2023-01-12T16:29:32.585Z,2.35
2023-01-12T16:31:59.030Z,1.38
2023-01-12T16:34:25.493Z,1.10
2023-01-12T16:36:51.831Z,1.00
2023-01-12T16:39:18.536Z,1.30
2023-01-12T16:41:44.823Z,1.25
2023-01-12T16:44:11.240Z,2.95
2023-01-12T16:46:37.532Z,1.20
2023-01-12T16:49:04.078Z,1.65
2023-01-12T16:51:30.540Z,1.27
2023-01-12T16:53:59.244Z,2.42
2023-01-12T16:56:25.654Z,2.10
2023-01-12T16:58:52.088Z,1.30
2023-01-12T17:01:24.156Z,1.75
2023-01-12T17:03:51.066Z,1.48
2023-01-12T17:06:19.441Z,1.10
2023-01-12T17:08:45.880Z,1.55
2023-01-12T17:11:14.056Z,1.35
2023-01-12T17:13:40.885Z,1.70
2023-01-12T17:16:08.757Z,1.48
2023-01-12T17:18:36.612Z,1.45
2023-01-12T17:21:07.749Z,1.88
2023-01-12T17:23:34.646Z,2.20
2023-01-12T17:26:02.253Z,1.80
2023-01-12T17:28:29.817Z,2.45
2023-01-12T17:30:59.467Z,3.63
2023-01-12T17:33:25.791Z,2.60
2023-01-12T17:35:52.094Z,2.40
2023-01-12T17:38:18.968Z,1.90
2023-01-12T17:40:45.326Z,2.83
2023-01-12T17:43:14.613Z,5.20
2023-01-12T17:45:45.216Z,5.63
2023-01-12T17:48:17.954Z,3.42
2023-01-12T17:50:44.472Z,3.15
2023-01-12T17:53:10.886Z,2.88
2023-01-12T17:55:47.607Z,2.25
2023-01-12T17:58:17.315Z,2.75
2023-01-12T18:00:43.677Z,2.33
2023-01-12T18:03:10.012Z,2.00
2023-01-12T18:05:36.414Z,3.47
2023-01-12T18:08:02.776Z,2.25
2023-01-12T18:10:29.115Z,4.57
2023-01-12T18:12:55.455Z,2.90
2023-01-12T18:15:21.881Z,1.92
2023-01-12T18:17:48.189Z,2.40
2023-01-12T18:20:14.518Z,2.10
2023-01-12T18:22:40.933Z,2.47
2023-01-12T18:25:07.658Z,1.98
2023-01-12T18:27:34.022Z,2.22
2023-01-12T18:30:00.356Z,2.00
2023-01-12T18:32:26.666Z,2.65
2023-01-12T18:34:53.066Z,2.35
2023-01-12T18:37:19.384Z,1.98
2023-01-12T18:39:46.752Z,2.35
2023-01-12T18:42:31.811Z,2.10
2023-01-12T18:44:59.406Z,2.15
2023-01-12T18:47:55.032Z,3.17
2023-01-12T18:50:47.281Z,5.90
2023-01-12T18:53:24.935Z,3.85
2023-01-12T18:55:54.969Z,1.92
2023-01-12T18:58:24.213Z,1.85
2023-01-12T19:00:51.325Z,3.20
2023-01-12T19:03:17.781Z,3.22
2023-01-12T19:05:57.289Z,4.45
2023-01-12T19:08:42.423Z,2.33
2023-01-12T19:11:10.045Z,3.28
2023-01-12T19:13:55.134Z,1.90
2023-01-12T19:16:40.143Z,2.78
2023-01-12T19:19:07.859Z,2.45
2023-01-12T19:21:53.379Z,2.75
2023-01-12T19:24:38.655Z,3.17
2023-01-12T19:27:23.704Z,3.22
2023-01-12T19:29:50.568Z,8.35
2023-01-12T19:32:17.189Z,3.08
2023-01-12T19:34:43.537Z,3.15
2023-01-12T19:37:10.445Z,3.38
2023-01-12T19:39:46.575Z,4.60
2023-01-12T19:42:31.871Z,2.20
2023-01-12T19:44:58.160Z,4.30
2023-01-12T19:47:24.488Z,2.63
2023-01-12T19:49:50.800Z,2.35
2023-01-12T19:52:17.120Z,4.43
2023-01-12T19:54:43.490Z,3.25
2023-01-12T19:57:09.866Z,2.13
2023-01-12T19:59:36.190Z,2.90
2023-01-12T20:02:02.554Z,2.55
2023-01-12T20:04:29.604Z,3.67
2023-01-12T20:06:56.314Z,2.70
2023-01-12T20:09:23.283Z,4.50
2023-01-12T20:11:54.341Z,2.88
2023-01-12T20:14:21.617Z,1.90
2023-01-12T20:16:47.993Z,2.08
2023-01-12T20:19:14.331Z,2.08
2023-01-12T20:21:40.675Z,2.30
2023-01-12T20:24:07.071Z,2.90
2023-01-12T20:26:33.410Z,3.17
2023-01-12T20:28:59.728Z,1.70
2023-01-12T20:31:26.050Z,2.08
2023-01-12T20:33:52.424Z,3.10
2023-01-12T20:36:18.825Z,1.83
2023-01-12T20:38:46.805Z,2.17
2023-01-12T20:41:13.162Z,3.17
2023-01-12T20:43:39.506Z,2.20
2023-01-12T20:46:09.825Z,2.92
2023-01-12T20:48:36.637Z,2.80
2023-01-12T20:51:05.996Z,3.15
2023-01-12T20:53:32.489Z,4.10
2023-01-12T20:55:58.896Z,2.70
2023-01-12T20:58:25.211Z,4.05
2023-01-12T21:00:52.813Z,3.60
2023-01-12T21:03:19.349Z,2.63
2023-01-12T21:05:46.872Z,2.10
2023-01-12T21:08:14.022Z,2.35
2023-01-12T21:10:41.041Z,2.50
2023-01-12T21:13:07.459Z,2.70
2023-01-12T21:15:33.800Z,2.80
2023-01-12T21:18:00.163Z,2.45
2023-01-12T21:20:26.518Z,2.67
2023-01-12T21:22:52.821Z,2.90
2023-01-12T21:25:19.919Z,3.28
2023-01-12T21:27:46.266Z,2.67
2023-01-12T21:30:12.677Z,2.28
2023-01-12T21:32:38.978Z,6.43
2023-01-12T21:35:05.484Z,4.00
2023-01-12T21:37:31.847Z,5.43
2023-01-12T21:39:58.284Z,4.03
2023-01-12T21:42:43.326Z,3.45
2023-01-12T21:45:10.003Z,4.97
2023-01-12T21:47:36.322Z,5.13
2023-01-12T21:50:02.718Z,5.22
2023-01-12T21:52:32.900Z,4.05
2023-01-12T21:54:59.377Z,3.22
2023-01-12T21:57:25.653Z,3.67
2023-01-12T21:59:53.048Z,3.90
2023-01-12T22:02:19.454Z,6.25
2023-01-12T22:04:45.986Z,4.35
2023-01-12T22:07:12.307Z,3.05
2023-01-12T22:09:39.345Z,3.88
2023-01-12T22:12:05.799Z,2.90
2023-01-12T22:14:32.146Z,4.78
2023-01-12T22:16:58.411Z,4.15
2023-01-12T22:19:24.757Z,4.35
2023-01-12T22:21:51.097Z,3.75
2023-01-12T22:24:17.470Z,2.95
2023-01-12T22:26:43.780Z,3.33
2023-01-12T22:29:10.148Z,2.72
2023-01-12T22:31:36.550Z,4.82
2023-01-12T22:34:06.483Z,3.30
2023-01-12T22:36:35.214Z,4.05
2023-01-12T22:39:01.780Z,5.10
2023-01-12T22:41:28.157Z,3.15
2023-01-12T22:43:54.860Z,2.05
2023-01-12T22:46:25.483Z,1.90
2023-01-12T22:48:53.167Z,4.03
2023-01-12T22:51:20.914Z,2.10
2023-01-12T22:53:47.877Z,2.33
2023-01-12T22:56:14.233Z,3.95
2023-01-12T22:58:40.642Z,1.73
2023-01-12T23:01:10.045Z,3.30
2023-01-12T23:03:37.209Z,1.67
2023-01-12T23:06:04.454Z,1.92
2023-01-12T23:08:30.910Z,1.88
2023-01-12T23:11:07.863Z,4.20
2023-01-12T23:13:34.765Z,2.05
2023-01-12T23:16:06.071Z,1.70
2023-01-12T23:18:33.404Z,5.60
2023-01-12T23:21:01.600Z,2.42
2023-01-12T23:23:28.242Z,1.73
2023-01-12T23:25:54.798Z,2.53
2023-01-12T23:28:21.127Z,3.30
2023-01-12T23:30:47.463Z,2.30
2023-01-12T23:33:13.836Z,2.83
2023-01-12T23:35:41.339Z,2.60
2023-01-12T23:38:08.317Z,2.38
2023-01-12T23:40:34.681Z,2.15
2023-01-12T23:43:01.312Z,3.20
2023-01-12T23:45:27.734Z,3.78
2023-01-12T23:47:54.067Z,3.67
2023-01-12T23:50:20.377Z,3.63
2023-01-12T23:52:50.035Z,3.13
2023-01-12T23:55:16.831Z,2.83
2023-01-12T23:57:45.318Z,2.38
